createdAt,value
2022-12-16T00:04:46.040Z,65.78
2022-12-16T00:09:48.024Z,63.65
2022-12-16T00:14:50.209Z,64.28
2022-12-16T00:19:52.734Z,71.00
2022-12-16T00:24:54.827Z,66.15
2022-12-16T00:29:57.298Z,61.30
2022-12-16T00:34:59.463Z,65.75
2022-12-16T00:40:01.511Z,62.90
2022-12-16T00:45:04.736Z,73.07
2022-12-16T00:50:07.556Z,67.05
2022-12-16T00:55:10.133Z,69.15
2022-12-16T01:00:14.623Z,72.93
2022-12-16T01:05:19.864Z,73.85
2022-12-16T01:10:26.632Z,72.47
2022-12-16T01:15:28.837Z,72.85
2022-12-16T01:20:32.813Z,67.57
2022-12-16T01:25:35.010Z,76.07
2022-12-16T01:30:37.118Z,70.95
2022-12-16T01:35:55.301Z,76.97
2022-12-16T01:40:58.549Z,73.70
2022-12-16T01:46:16.072Z,79.50
2022-12-16T01:51:24.245Z,70.95
2022-12-16T01:56:30.713Z,72.97
2022-12-16T02:01:32.959Z,74.25
2022-12-16T02:06:35.285Z,70.78
2022-12-16T02:11:54.282Z,70.15
2022-12-16T02:17:07.428Z,72.78
2022-12-16T02:22:43.369Z,73.63
2022-12-16T02:27:59.062Z,73.53
2022-12-16T02:33:18.547Z,72.63
2022-12-16T02:38:26.561Z,78.38
2022-12-16T02:43:43.799Z,75.13
2022-12-16T02:48:45.987Z,72.88
2022-12-16T02:53:50.177Z,72.18
2022-12-16T02:59:03.734Z,74.32
2022-12-16T03:04:20.727Z,72.88
2022-12-16T03:09:28.772Z,75.70
2022-12-16T03:14:34.383Z,76.45
2022-12-16T03:19:39.208Z,76.60
2022-12-16T03:24:42.136Z,76.90
2022-12-16T03:29:58.993Z,75.50
2022-12-16T03:35:14.408Z,80.07
2022-12-16T03:40:16.794Z,73.38
2022-12-16T03:45:25.004Z,76.93
2022-12-16T03:50:32.090Z,72.93
2022-12-16T03:55:34.114Z,77.57
2022-12-16T04:00:36.366Z,68.03
2022-12-16T04:05:38.539Z,72.40
2022-12-16T04:10:59.257Z,69.43
2022-12-16T04:16:20.213Z,63.80
2022-12-16T04:21:41.014Z,65.00
2022-12-16T04:27:01.562Z,59.22
2022-12-16T04:32:03.725Z,61.38
2022-12-16T04:37:24.626Z,58.78
2022-12-16T04:48:05.709Z,43.58
2022-12-16T04:53:26.011Z,37.72
2022-12-16T04:58:46.691Z,36.42
2022-12-16T05:04:07.406Z,39.70
2022-12-16T05:09:28.034Z,37.67
2022-12-16T05:14:48.428Z,28.90
2022-12-16T05:20:08.878Z,32.90
2022-12-16T05:25:31.651Z,27.90
2022-12-16T05:30:52.117Z,24.40
2022-12-16T05:36:12.866Z,29.13
2022-12-16T05:41:33.315Z,33.72
2022-12-16T05:46:53.845Z,32.38
2022-12-16T05:52:14.497Z,31.48
2022-12-16T05:57:35.308Z,32.75
2022-12-16T06:02:56.264Z,34.97
2022-12-16T06:08:16.698Z,40.60
2022-12-16T06:13:37.083Z,36.22
2022-12-16T06:18:57.426Z,27.83
2022-12-16T06:24:17.952Z,39.92
2022-12-16T06:29:38.348Z,37.40
2022-12-16T06:34:59.086Z,44.40
2022-12-16T06:40:19.550Z,42.33
2022-12-16T06:45:40.306Z,38.50
2022-12-16T06:51:01.213Z,39.60
2022-12-16T07:01:42.334Z,35.95
2022-12-16T07:07:03.207Z,35.90
2022-12-16T07:17:43.973Z,36.53
2022-12-16T07:23:13.161Z,41.40
2022-12-16T07:28:38.107Z,38.03
2022-12-16T07:33:58.666Z,37.47
2022-12-16T07:39:19.123Z,38.83
2022-12-16T07:44:39.861Z,40.25
2022-12-16T07:50:00.792Z,39.17
2022-12-16T07:55:21.829Z,62.30
2022-12-16T08:00:42.474Z,69.57
2022-12-16T08:11:23.866Z,55.03
2022-12-16T08:16:45.066Z,60.55
2022-12-16T08:22:05.556Z,63.00
2022-12-16T08:27:26.000Z,65.65
2022-12-16T08:32:46.671Z,66.38
2022-12-16T08:38:12.222Z,52.42
2022-12-16T08:43:35.245Z,63.92
2022-12-16T08:48:56.111Z,33.35
2022-12-16T08:59:37.532Z,38.20
2022-12-16T09:10:18.454Z,35.97
2022-12-16T09:15:55.798Z,30.20
2022-12-16T09:21:16.996Z,31.88
2022-12-16T09:26:37.363Z,31.60
2022-12-16T09:31:58.251Z,30.05
2022-12-16T09:37:19.040Z,24.50
2022-12-16T09:42:58.805Z,20.35
2022-12-16T09:48:29.766Z,24.52
2022-12-16T09:59:18.072Z,20.33
2022-12-16T10:04:38.414Z,24.33
2022-12-16T10:10:27.808Z,18.17
2022-12-16T10:16:16.314Z,21.35
2022-12-16T10:21:44.740Z,17.27
2022-12-16T10:27:22.645Z,18.48
2022-12-16T10:32:57.016Z,17.23
2022-12-16T10:38:17.603Z,15.30
2022-12-16T10:44:01.085Z,21.25
2022-12-16T10:49:21.664Z,21.00
2022-12-16T10:55:05.186Z,17.75
2022-12-16T11:00:28.659Z,17.90
2022-12-16T11:05:52.701Z,14.75
2022-12-16T11:11:13.666Z,16.10
2022-12-16T11:16:46.122Z,15.95
2022-12-16T11:22:07.699Z,17.33
2022-12-16T11:27:45.313Z,19.17
2022-12-16T11:33:12.774Z,17.17
2022-12-16T11:38:44.253Z,12.38
2022-12-16T11:44:10.064Z,13.85
2022-12-16T11:49:37.726Z,15.70
2022-12-16T11:55:12.688Z,13.70
2022-12-16T12:00:34.902Z,12.77
2022-12-16T12:05:59.562Z,13.30
2022-12-16T12:11:41.111Z,18.58
2022-12-16T12:17:17.844Z,15.55
2022-12-16T12:22:46.918Z,15.27
2022-12-16T12:28:16.214Z,12.85
2022-12-16T12:34:03.462Z,12.07
2022-12-16T12:39:32.502Z,14.95
2022-12-16T12:45:09.471Z,12.55
2022-12-16T12:50:47.651Z,16.52
2022-12-16T12:56:20.873Z,17.10
2022-12-16T13:01:46.643Z,18.15
2022-12-16T13:07:07.841Z,21.00
2022-12-16T13:12:28.601Z,13.82
2022-12-16T13:18:18.552Z,15.00
2022-12-16T13:23:54.360Z,12.82
2022-12-16T13:29:49.712Z,14.95
2022-12-16T13:35:22.394Z,14.48
2022-12-16T13:40:43.250Z,13.95
2022-12-16T13:46:23.932Z,11.07
2022-12-16T13:51:57.177Z,13.93
2022-12-16T13:57:20.580Z,10.90
2022-12-16T14:02:41.224Z,13.23
2022-12-16T14:08:03.355Z,16.20
2022-12-16T14:13:31.883Z,11.73
2022-12-16T14:19:11.587Z,12.43
2022-12-16T14:24:42.265Z,12.15
2022-12-16T14:30:03.202Z,11.98
2022-12-16T14:35:31.409Z,11.80
2022-12-16T14:40:52.457Z,13.30
2022-12-16T14:46:13.205Z,12.73
2022-12-16T14:51:47.263Z,17.92
2022-12-16T14:57:07.773Z,16.13
2022-12-16T15:02:45.039Z,13.53
2022-12-16T15:08:06.284Z,14.13
2022-12-16T15:13:35.161Z,14.70
2022-12-16T15:19:04.761Z,15.07
2022-12-16T15:24:29.750Z,14.35
2022-12-16T15:29:53.214Z,17.40
2022-12-16T15:35:13.754Z,20.75
2022-12-16T15:40:47.346Z,15.63
2022-12-16T15:46:09.167Z,21.35
2022-12-16T15:51:45.047Z,22.75
2022-12-16T15:57:25.691Z,20.27
2022-12-16T16:02:49.205Z,21.50
2022-12-16T16:08:09.988Z,24.60
2022-12-16T16:18:52.442Z,21.27
2022-12-16T16:24:13.015Z,21.60
2022-12-16T16:29:33.432Z,23.58
2022-12-16T16:34:54.338Z,22.10
2022-12-16T16:40:14.673Z,25.70
2022-12-16T16:45:35.342Z,24.73
2022-12-16T16:50:56.018Z,21.05
2022-12-16T16:56:20.153Z,20.58
2022-12-16T17:01:41.339Z,21.77
2022-12-16T17:12:35.086Z,27.70
2022-12-16T17:17:55.692Z,29.05
2022-12-16T17:23:16.151Z,35.15
2022-12-16T17:28:36.691Z,38.30
2022-12-16T17:33:57.267Z,33.13
2022-12-16T17:39:18.270Z,33.65
2022-12-16T17:44:39.033Z,41.67
2022-12-16T17:49:59.742Z,29.15
2022-12-16T18:00:40.775Z,37.10
2022-12-16T18:06:01.207Z,36.17
2022-12-16T18:11:22.002Z,35.60
2022-12-16T18:22:03.613Z,38.60
2022-12-16T18:27:24.483Z,45.30
2022-12-16T18:32:46.450Z,41.95
2022-12-16T18:43:27.440Z,39.75
2022-12-16T18:48:48.359Z,43.85
2022-12-16T18:54:09.585Z,42.63
2022-12-16T18:59:30.524Z,38.83
2022-12-16T19:04:51.244Z,43.22
2022-12-16T19:15:34.407Z,48.88
2022-12-16T19:20:58.829Z,47.28
2022-12-16T19:26:20.026Z,59.65
2022-12-16T19:31:40.927Z,59.78
2022-12-16T19:37:01.747Z,67.03
2022-12-16T19:42:22.576Z,63.50
2022-12-16T19:47:43.302Z,64.78
2022-12-16T19:58:24.386Z,81.47
2022-12-16T20:03:45.653Z,102.05
2022-12-16T20:09:10.490Z,85.32
2022-12-16T20:14:30.914Z,68.45
2022-12-16T20:19:51.560Z,61.85
2022-12-16T20:25:12.287Z,56.63
2022-12-16T20:35:56.057Z,55.55
2022-12-16T20:41:19.433Z,48.90
2022-12-16T20:46:39.966Z,60.83
2022-12-16T20:52:00.445Z,42.55
2022-12-16T20:57:21.227Z,41.05
2022-12-16T21:02:41.933Z,40.17
2022-12-16T21:08:03.165Z,38.15
2022-12-16T21:13:32.925Z,39.28
2022-12-16T21:18:53.648Z,50.85
2022-12-16T21:24:14.451Z,58.20
2022-12-16T21:29:34.859Z,54.22
2022-12-16T21:34:56.307Z,62.17
2022-12-16T21:40:16.980Z,63.75
2022-12-16T21:45:37.726Z,62.53
2022-12-16T21:50:58.418Z,59.80
2022-12-16T21:56:19.164Z,55.85
2022-12-16T22:01:39.975Z,66.63
2022-12-16T22:07:00.547Z,68.03
2022-12-16T22:12:21.562Z,66.88
2022-12-16T22:17:42.174Z,60.53
2022-12-16T22:23:03.019Z,58.58
2022-12-16T22:28:24.725Z,57.30
2022-12-16T22:33:49.998Z,56.70
2022-12-16T22:39:11.216Z,44.95
2022-12-16T22:44:31.860Z,50.05
2022-12-16T22:55:13.241Z,57.33
2022-12-16T23:05:55.055Z,42.70
2022-12-16T23:16:37.714Z,42.22
2022-12-16T23:21:58.466Z,52.58
2022-12-16T23:32:39.516Z,42.30
2022-12-16T23:38:00.255Z,34.35
2022-12-16T23:48:41.587Z,41.35
2022-12-16T23:59:22.736Z,48.17
